Time;durP1;ratioP1;P1;durP2;ratioP2;P2;SDS_P1;SDS_P2;PMS_P1;PMS_P2;Temp;Humidity;BMP_temperature;BMP_pressure;BME280_temperature;BME280_humidity;BME280_pressure;Samples;Min_cycle;Max_cycle;Signal;HPM_P1;HPM_P2
2023/07/20 00:00:20;;;;;;;10.83;4.07;;;10.50;67.60;;;;;;4991378;28;20181;-64
2023/07/20 00:02:50;;;;;;;12.80;4.50;;;10.60;66.30;;;;;;4971534;28;20534;-65
2023/07/20 00:05:24;;;;;;;13.63;4.13;;;10.70;66.50;;;;;;4989940;28;20268;-68
2023/07/20 00:07:52;;;;;;;14.80;4.83;;;10.80;65.80;;;;;;4993082;28;20194;-66
2023/07/20 00:10:19;;;;;;;8.43;4.13;;;10.80;66.80;;;;;;4992330;28;20208;-66
2023/07/20 00:12:47;;;;;;;9.40;4.13;;;11.00;66.00;;;;;;4991384;28;20317;-67
2023/07/20 00:15:15;;;;;;;9.57;4.13;;;11.10;65.40;;;;;;4989942;28;20771;-65
2023/07/20 00:17:42;;;;;;;13.87;4.17;;;11.20;66.00;;;;;;4989098;28;20198;-66
2023/07/20 00:20:10;;;;;;;9.47;3.83;;;11.30;65.10;;;;;;4990420;28;20570;-67
2023/07/20 00:22:37;;;;;;;12.93;4.10;;;11.50;64.60;;;;;;4988683;28;20191;-66
2023/07/20 00:25:05;;;;;;;11.83;3.87;;;11.50;64.10;;;;;;4993050;28;20188;-66
2023/07/20 00:27:32;;;;;;;9.03;3.97;;;11.50;64.50;;;;;;4990828;28;20229;-66
2023/07/20 00:30:00;;;;;;;11.97;3.43;;;11.70;64.20;;;;;;4991017;28;20186;-66
2023/07/20 00:32:27;;;;;;;9.53;3.43;;;11.70;63.80;;;;;;4988599;28;20305;-66
2023/07/20 00:34:54;;;;;;;6.00;3.20;;;11.80;63.60;;;;;;4980968;28;20178;-66
2023/07/20 00:37:21;;;;;;;10.40;3.30;;;11.90;63.80;;;;;;4989532;28;20248;-66
2023/07/20 00:39:49;;;;;;;10.10;3.77;;;12.00;62.40;;;;;;4990716;28;20178;-66
2023/07/20 00:42:16;;;;;;;10.13;3.07;;;12.00;63.30;;;;;;4990213;28;20540;-67
2023/07/20 00:44:43;;;;;;;16.20;4.00;;;12.10;63.10;;;;;;4989302;28;20194;-66
2023/07/20 00:47:12;;;;;;;11.83;3.27;;;12.30;62.60;;;;;;4992690;28;20240;-68
2023/07/20 00:49:40;;;;;;;6.93;3.10;;;12.60;62.30;;;;;;4989811;28;20182;-66
2023/07/20 00:52:11;;;;;;;9.43;3.33;;;12.90;61.90;;;;;;4989606;28;20190;-66
2023/07/20 00:54:38;;;;;;;6.40;2.67;;;13.20;60.50;;;;;;4989259;28;20182;-66
2023/07/20 00:57:07;;;;;;;8.50;2.87;;;13.20;58.80;;;;;;4984111;28;20221;-67
2023/07/20 00:59:38;;;;;;;10.73;2.97;;;13.40;58.60;;;;;;4989902;28;20178;-67
2023/07/20 01:02:05;;;;;;;5.67;2.50;;;13.60;58.60;;;;;;4982982;28;20183;-67
2023/07/20 01:04:34;;;;;;;9.83;2.33;;;13.80;57.70;;;;;;4981144;28;20186;-68
2023/07/20 01:07:11;;;;;;;9.73;2.70;;;13.80;56.70;;;;;;4982770;28;20189;-66
2023/07/20 01:09:57;;;;;;;17.30;2.80;;;14.10;56.40;;;;;;4975310;28;20182;-66
2023/07/20 01:12:29;;;;;;;9.30;2.87;;;14.40;55.50;;;;;;4989677;28;20193;-66
2023/07/20 01:14:57;;;;;;;6.67;2.43;;;14.50;53.70;;;;;;4983229;28;20258;-65
2023/07/20 01:17:24;;;;;;;8.43;2.20;;;14.70;53.10;;;;;;4988852;28;20186;-67
2023/07/20 01:19:51;;;;;;;5.73;1.97;;;14.80;52.40;;;;;;4986796;28;20600;-65
2023/07/20 01:22:47;;;;;;;4.47;1.80;;;15.00;50.90;;;;;;4979178;28;20285;-66
2023/07/20 01:25:32;;;;;;;5.83;1.50;;;15.30;45.80;;;;;;4981955;28;20652;-67
2023/07/20 01:28:28;;;;;;;2.97;1.33;;;15.30;45.50;;;;;;4990001;28;20174;-66
2023/07/20 01:31:27;;;;;;;6.93;1.60;;;15.50;44.00;;;;;;4991448;28;20229;-65
2023/07/20 01:33:57;;;;;;;4.67;1.30;;;15.80;42.70;;;;;;4990701;28;20178;-66
2023/07/20 01:36:27;;;;;;;3.23;1.43;;;16.10;42.70;;;;;;4991626;28;20269;-65
2023/07/20 01:38:55;;;;;;;2.67;1.10;;;16.20;41.80;;;;;;4995316;28;20226;-64
2023/07/20 01:41:22;;;;;;;4.57;1.30;;;16.20;39.80;;;;;;4989473;28;20521;-69
2023/07/20 01:43:50;;;;;;;2.50;1.20;;;16.10;40.00;;;;;;4994551;28;20222;-70
2023/07/20 01:46:17;;;;;;;2.73;1.10;;;16.30;39.60;;;;;;4995616;28;20186;-73
2023/07/20 01:48:44;;;;;;;2.77;1.20;;;16.30;38.90;;;;;;4992226;28;20209;-65
2023/07/20 01:51:12;;;;;;;3.30;1.30;;;16.10;39.10;;;;;;4993083;28;20677;-66
2023/07/20 01:53:39;;;;;;;3.40;1.13;;;16.30;39.00;;;;;;4993877;28;20178;-66
2023/07/20 01:56:06;;;;;;;2.17;1.30;;;16.30;38.80;;;;;;4993658;28;20282;-67
2023/07/20 01:58:34;;;;;;;3.20;1.40;;;16.30;38.70;;;;;;4982627;28;20276;-66
2023/07/20 02:01:02;;;;;;;4.03;1.27;;;16.50;38.20;;;;;;4984266;28;20545;-66
2023/07/20 02:03:30;;;;;;;2.17;1.20;;;16.40;38.30;;;;;;4986952;28;20242;-66
2023/07/20 02:05:57;;;;;;;2.03;1.13;;;16.50;37.90;;;;;;4988404;28;20181;-65
2023/07/20 02:08:24;;;;;;;3.60;1.30;;;16.70;37.20;;;;;;4988753;28;20205;-67
2023/07/20 02:10:52;;;;;;;4.87;1.60;;;16.70;37.80;;;;;;4970743;28;20183;-65
2023/07/20 02:13:19;;;;;;;3.50;1.40;;;16.90;37.40;;;;;;4991308;28;20197;-66
2023/07/20 02:15:49;;;;;;;2.07;1.20;;;17.00;36.40;;;;;;4991139;28;20653;-66
2023/07/20 02:18:16;;;;;;;6.33;1.57;;;17.00;36.20;;;;;;4986055;28;20188;-67
2023/07/20 02:20:44;;;;;;;2.03;1.20;;;17.00;37.00;;;;;;4984344;28;20213;-67
2023/07/20 02:23:12;;;;;;;2.50;1.20;;;17.30;36.10;;;;;;4989716;28;20517;-66
2023/07/20 02:25:39;;;;;;;8.00;1.53;;;17.60;35.80;;;;;;4991209;28;20184;-66
2023/07/20 02:28:09;;;;;;;2.67;1.23;;;17.60;36.10;;;;;;4983124;28;20229;-65
2023/07/20 02:30:39;;;;;;;3.27;1.63;;;17.80;35.80;;;;;;4981641;28;20222;-65
2023/07/20 02:33:07;;;;;;;4.40;1.10;;;17.70;36.30;;;;;;4986075;28;20186;-67
2023/07/20 02:35:34;;;;;;;4.00;1.17;;;17.60;35.60;;;;;;4991453;28;20288;-64
2023/07/20 02:38:03;;;;;;;2.73;1.20;;;17.60;36.40;;;;;;4991581;28;20553;-65
2023/07/20 02:40:30;;;;;;;6.53;1.13;;;18.10;35.70;;;;;;4989587;28;20197;-66
2023/07/20 02:42:57;;;;;;;2.87;0.90;;;18.30;35.40;;;;;;4983633;28;20535;-66
2023/07/20 02:45:26;;;;;;;4.73;1.27;;;18.00;34.90;;;;;;4990062;28;20651;-68
2023/07/20 02:47:53;;;;;;;2.60;1.20;;;17.70;35.00;;;;;;4989110;28;20197;-65
2023/07/20 02:50:21;;;;;;;2.77;1.10;;;17.70;35.30;;;;;;4964725;28;20186;-65
2023/07/20 02:52:48;;;;;;;3.97;1.27;;;17.80;34.50;;;;;;4986747;28;20186;-65
2023/07/20 02:55:15;;;;;;;3.53;1.30;;;18.00;34.80;;;;;;4988384;28;20703;-65
2023/07/20 02:57:43;;;;;;;7.37;1.10;;;17.90;34.70;;;;;;4983908;28;20191;-67
2023/07/20 03:00:11;;;;;;;2.80;1.17;;;18.20;34.20;;;;;;4982752;28;20209;-66
2023/07/20 03:02:38;;;;;;;3.67;1.13;;;18.10;34.40;;;;;;4986837;28;20236;-66
2023/07/20 03:05:07;;;;;;;2.37;1.20;;;18.10;34.70;;;;;;4990066;28;20166;-67
2023/07/20 03:07:34;;;;;;;2.87;1.03;;;18.40;34.80;;;;;;4991592;28;20182;-65
2023/07/20 03:10:02;;;;;;;6.17;1.30;;;18.30;35.30;;;;;;4987462;28;20261;-65
2023/07/20 03:12:30;;;;;;;2.03;1.10;;;18.50;34.70;;;;;;4988689;28;20202;-65
2023/07/20 03:14:57;;;;;;;1.40;0.90;;;18.60;34.30;;;;;;4991215;28;20269;-67
2023/07/20 03:17:24;;;;;;;3.73;1.20;;;18.80;34.50;;;;;;4986479;28;20224;-68
2023/07/20 03:19:52;;;;;;;4.80;1.20;;;18.90;34.60;;;;;;4993125;28;20178;-67
2023/07/20 03:22:21;;;;;;;7.47;1.43;;;19.00;33.60;;;;;;4987214;28;20538;-66
2023/07/20 03:24:48;;;;;;;2.90;1.13;;;18.50;34.80;;;;;;4990218;28;20537;-66
2023/07/20 03:27:19;;;;;;;4.40;1.10;;;18.60;35.20;;;;;;4984519;28;20194;-66
2023/07/20 03:29:46;;;;;;;4.40;1.33;;;19.10;34.00;;;;;;4984926;28;20190;-66
2023/07/20 03:32:13;;;;;;;2.37;1.10;;;19.30;34.10;;;;;;4988534;28;20229;-68
2023/07/20 03:34:41;;;;;;;2.10;0.97;;;19.60;33.80;;;;;;4984640;28;20232;-65
2023/07/20 03:37:09;;;;;;;2.67;1.20;;;19.70;34.20;;;;;;4985077;28;20217;-70
2023/07/20 03:39:36;;;;;;;4.33;1.20;;;19.30;34.60;;;;;;4987142;28;20197;-67
2023/07/20 03:42:04;;;;;;;3.40;1.13;;;19.50;34.80;;;;;;4986339;28;20185;-65
2023/07/20 03:44:32;;;;;;;2.50;1.20;;;19.50;34.10;;;;;;4980252;28;20335;-63
2023/07/20 03:46:59;;;;;;;4.50;1.03;;;19.30;34.50;;;;;;4987100;28;20224;-65
2023/07/20 03:49:27;;;;;;;5.07;1.37;;;19.60;34.00;;;;;;4984967;28;20200;-64
2023/07/20 03:51:55;;;;;;;5.57;1.13;;;19.70;33.90;;;;;;4988513;28;20201;-68
2023/07/20 03:54:22;;;;;;;2.30;1.20;;;19.60;33.90;;;;;;4988830;28;20269;-71
2023/07/20 03:56:50;;;;;;;1.90;0.97;;;19.60;34.60;;;;;;4982768;28;20364;-67
2023/07/20 03:59:17;;;;;;;5.37;1.27;;;20.00;34.50;;;;;;4989901;28;20201;-65
2023/07/20 04:01:44;;;;;;;3.63;1.10;;;20.70;33.70;;;;;;4989347;28;20212;-65
2023/07/20 04:04:12;;;;;;;5.10;1.20;;;20.80;34.10;;;;;;4984594;28;20282;-73
2023/07/20 04:06:39;;;;;;;2.37;0.70;;;20.80;33.00;;;;;;4987280;28;20185;-64
2023/07/20 04:09:06;;;;;;;2.70;1.20;;;20.20;34.20;;;;;;4985736;28;20600;-67
2023/07/20 04:11:34;;;;;;;5.27;0.90;;;20.10;35.50;;;;;;4985595;28;20192;-74
2023/07/20 04:14:01;;;;;;;4.50;1.30;;;20.40;34.90;;;;;;4990114;28;20628;-65
2023/07/20 04:16:28;;;;;;;4.77;1.20;;;21.30;32.70;;;;;;4986271;28;20233;-67
2023/07/20 04:18:59;;;;;;;3.97;1.07;;;21.50;32.40;;;;;;4985424;28;20202;-66
2023/07/20 04:21:28;;;;;;;4.17;1.17;;;21.10;32.30;;;;;;4987094;28;20257;-66
2023/07/20 04:23:56;;;;;;;3.23;1.67;;;20.70;34.10;;;;;;4983146;28;20585;-64
2023/07/20 04:26:23;;;;;;;4.50;1.70;;;20.30;33.40;;;;;;4988185;28;20845;-67
2023/07/20 04:28:51;;;;;;;7.10;1.40;;;20.80;32.70;;;;;;4989513;28;20186;-64
2023/07/20 04:31:18;;;;;;;4.33;1.20;;;20.80;32.50;;;;;;4983420;28;20225;-64
2023/07/20 04:33:46;;;;;;;3.63;1.10;;;21.20;32.20;;;;;;4980966;28;20182;-65
2023/07/20 04:36:16;;;;;;;7.60;1.13;;;20.80;32.80;;;;;;4991357;28;20218;-66
2023/07/20 04:38:43;;;;;;;2.47;1.10;;;21.40;32.10;;;;;;4987478;28;20240;-65
2023/07/20 04:41:12;;;;;;;4.73;1.23;;;21.50;31.50;;;;;;4990039;28;20203;-66
2023/07/20 04:43:43;;;;;;;3.70;0.93;;;21.40;32.30;;;;;;4986964;28;20559;-64
2023/07/20 04:46:11;;;;;;;6.53;1.40;;;21.20;32.20;;;;;;4985926;28;20217;-64
2023/07/20 04:48:38;;;;;;;3.93;1.33;;;21.60;32.20;;;;;;4990502;28;20184;-65
2023/07/20 04:51:05;;;;;;;3.93;1.07;;;21.70;31.60;;;;;;4987589;28;20178;-65
2023/07/20 04:53:33;;;;;;;4.70;1.03;;;21.70;32.10;;;;;;4985937;28;20667;-67
2023/07/20 04:56:00;;;;;;;3.40;1.00;;;21.80;31.60;;;;;;4972692;28;20255;-67
2023/07/20 04:58:27;;;;;;;4.63;1.00;;;21.60;31.80;;;;;;4992337;28;20185;-68
2023/07/20 05:00:55;;;;;;;4.90;1.30;;;21.30;32.30;;;;;;4989457;28;20648;-65
2023/07/20 05:03:22;;;;;;;2.00;1.07;;;21.80;31.80;;;;;;4983018;28;20204;-69
2023/07/20 05:05:49;;;;;;;3.93;1.20;;;21.90;31.60;;;;;;4981956;28;20307;-64
2023/07/20 05:08:17;;;;;;;3.60;0.90;;;21.10;32.60;;;;;;4985425;28;20190;-67
2023/07/20 05:10:44;;;;;;;1.87;1.00;;;21.50;33.10;;;;;;4984141;28;20188;-64
2023/07/20 05:13:12;;;;;;;7.30;0.80;;;21.20;31.30;;;;;;4987747;28;20336;-65
2023/07/20 05:15:39;;;;;;;7.00;1.00;;;21.50;31.30;;;;;;4990535;28;20214;-65
2023/07/20 05:18:07;;;;;;;2.17;0.80;;;21.30;31.80;;;;;;4992276;28;20184;-65
2023/07/20 05:20:37;;;;;;;3.03;1.00;;;21.60;31.30;;;;;;4994304;28;20210;-65
2023/07/20 05:23:04;;;;;;;2.67;0.90;;;21.50;31.20;;;;;;4981714;28;20178;-69
2023/07/20 05:25:31;;;;;;;3.90;1.20;;;21.60;31.00;;;;;;4993320;28;20186;-66
2023/07/20 05:27:59;;;;;;;3.37;0.93;;;21.80;31.20;;;;;;4995142;28;20178;-64
2023/07/20 05:30:28;;;;;;;5.30;1.10;;;21.90;30.60;;;;;;4996006;28;20703;-68
2023/07/20 05:32:56;;;;;;;2.47;0.87;;;22.30;29.80;;;;;;4992816;28;20388;-68
2023/07/20 05:35:23;;;;;;;3.57;1.00;;;22.80;29.10;;;;;;4988389;28;20651;-69
2023/07/20 05:37:50;;;;;;;4.83;0.80;;;22.90;28.80;;;;;;4988553;28;20198;-65
2023/07/20 05:40:18;;;;;;;2.23;0.90;;;22.60;29.30;;;;;;4994421;28;20186;-67
2023/07/20 05:42:48;;;;;;;2.77;0.73;;;22.30;30.20;;;;;;4996337;28;20252;-69
2023/07/20 05:45:16;;;;;;;3.30;0.80;;;22.20;30.20;;;;;;4995189;28;20194;-70
2023/07/20 05:47:43;;;;;;;2.23;1.27;;;22.10;29.90;;;;;;4995047;28;20217;-66
2023/07/20 05:50:11;;;;;;;5.47;1.20;;;22.30;29.50;;;;;;4993209;28;20646;-68
2023/07/20 05:52:38;;;;;;;3.37;1.00;;;22.80;29.80;;;;;;4993662;28;20216;-66
2023/07/20 05:55:06;;;;;;;4.03;1.10;;;22.40;29.90;;;;;;4995516;28;20189;-66
2023/07/20 05:57:35;;;;;;;5.73;1.30;;;23.40;28.30;;;;;;4996880;28;20193;-67
2023/07/20 06:00:03;;;;;;;2.30;1.20;;;23.50;28.00;;;;;;4996219;28;20637;-67
2023/07/20 06:02:32;;;;;;;5.43;1.20;;;23.20;28.10;;;;;;4993295;28;20186;-72
2023/07/20 06:05:00;;;;;;;5.43;1.10;;;22.90;28.80;;;;;;4994321;28;20273;-66
2023/07/20 06:07:27;;;;;;;4.33;1.37;;;23.00;28.40;;;;;;4991424;28;20190;-66
2023/07/20 06:09:54;;;;;;;2.17;0.90;;;22.70;28.70;;;;;;4995679;28;20652;-64
2023/07/20 06:12:22;;;;;;;6.63;1.40;;;22.50;29.50;;;;;;4995517;28;20178;-68
2023/07/20 06:14:49;;;;;;;1.97;1.00;;;22.40;30.20;;;;;;4994840;28;20186;-70
2023/07/20 06:17:16;;;;;;;2.43;0.93;;;22.50;29.50;;;;;;4995026;28;20340;-64
2023/07/20 06:19:44;;;;;;;2.90;1.00;;;21.30;31.20;;;;;;4984247;28;20257;-68
2023/07/20 06:22:11;;;;;;;2.33;1.00;;;20.30;32.20;;;;;;4995411;28;20189;-67
2023/07/20 06:24:39;;;;;;;4.40;1.47;;;19.60;34.00;;;;;;4977174;28;20190;-67
2023/07/20 06:27:06;;;;;;;9.30;1.27;;;19.50;34.50;;;;;;4993290;28;20225;-65
2023/07/20 06:29:33;;;;;;;4.40;0.90;;;19.20;35.20;;;;;;4995159;28;20182;-68
2023/07/20 06:32:01;;;;;;;4.47;1.30;;;18.90;35.20;;;;;;4993098;28;20762;-66
2023/07/20 06:34:29;;;;;;;3.33;1.47;;;18.70;36.10;;;;;;4994234;28;20178;-70
2023/07/20 06:36:56;;;;;;;2.00;1.30;;;18.40;35.90;;;;;;4991918;28;20245;-73
2023/07/20 06:39:24;;;;;;;1.93;1.30;;;18.30;36.90;;;;;;4994006;28;20180;-69
2023/07/20 06:41:51;;;;;;;1.70;1.00;;;18.10;36.70;;;;;;4989364;28;20197;-66
2023/07/20 06:44:18;;;;;;;3.07;1.40;;;17.90;37.00;;;;;;4991319;28;20182;-65
2023/07/20 06:46:45;;;;;;;3.50;1.70;;;17.80;37.90;;;;;;4994412;28;20186;-65
2023/07/20 06:49:28;;;;;;;2.83;1.50;;;17.70;38.20;;;;;;4991630;28;20204;-65
2023/07/20 06:51:55;;;;;;;4.03;1.67;;;17.60;38.40;;;;;;4992680;28;20181;-66
2023/07/20 06:54:23;;;;;;;7.80;1.87;;;17.50;38.40;;;;;;4995003;28;20245;-65
2023/07/20 06:56:50;;;;;;;2.67;1.40;;;17.40;38.60;;;;;;4995258;28;20256;-66
2023/07/20 06:59:18;;;;;;;3.53;1.50;;;17.30;38.80;;;;;;4994918;28;20174;-64
2023/07/20 07:01:45;;;;;;;4.97;1.50;;;17.30;39.00;;;;;;4989774;28;20187;-65
2023/07/20 07:04:12;;;;;;;2.83;1.60;;;17.30;39.30;;;;;;4993512;28;20220;-66
2023/07/20 07:06:40;;;;;;;2.53;1.10;;;17.20;39.10;;;;;;4989218;28;20206;-66
2023/07/20 07:09:08;;;;;;;3.50;1.63;;;17.00;39.70;;;;;;4994831;28;20532;-65
2023/07/20 07:11:35;;;;;;;4.43;1.30;;;16.90;40.00;;;;;;4993365;28;20216;-65
2023/07/20 07:14:02;;;;;;;1.93;1.03;;;16.80;40.20;;;;;;4994082;28;20186;-65
2023/07/20 07:16:30;;;;;;;4.23;1.30;;;16.70;40.20;;;;;;4993061;28;20225;-65
2023/07/20 07:18:58;;;;;;;2.17;1.30;;;16.70;40.40;;;;;;4989673;28;20251;-65
2023/07/20 07:21:25;;;;;;;2.00;1.13;;;16.60;40.60;;;;;;4985857;28;20639;-65
2023/07/20 07:23:54;;;;;;;4.57;1.60;;;16.60;41.60;;;;;;4990544;28;20193;-66
2023/07/20 07:26:21;;;;;;;3.20;1.40;;;16.50;41.40;;;;;;4970476;28;20283;-64
2023/07/20 07:28:48;;;;;;;3.00;1.30;;;16.40;41.60;;;;;;4988853;28;20243;-64
2023/07/20 07:31:16;;;;;;;6.50;1.60;;;16.30;42.00;;;;;;4983935;28;20231;-64
2023/07/20 07:33:43;;;;;;;6.10;1.40;;;16.30;42.10;;;;;;4986132;28;20182;-65
2023/07/20 07:36:10;;;;;;;8.40;1.60;;;16.20;42.40;;;;;;4990965;28;20247;-64
2023/07/20 07:38:38;;;;;;;11.50;2.07;;;16.10;43.00;;;;;;4984925;28;21340;-64
2023/07/20 07:41:05;;;;;;;7.47;1.70;;;16.00;43.40;;;;;;4988940;28;20697;-68
2023/07/20 07:43:33;;;;;;;9.13;2.00;;;15.90;43.70;;;;;;4983556;28;20173;-65
2023/07/20 07:46:00;;;;;;;11.53;2.33;;;15.80;44.20;;;;;;4988453;28;20194;-64
2023/07/20 07:48:28;;;;;;;6.17;2.30;;;15.70;44.50;;;;;;4983627;28;20213;-65
2023/07/20 07:50:55;;;;;;;11.00;2.60;;;15.70;45.30;;;;;;4989029;28;20182;-64
2023/07/20 07:53:25;;;;;;;7.73;2.60;;;15.70;45.30;;;;;;4982195;28;20182;-64
2023/07/20 07:55:53;;;;;;;7.73;2.27;;;15.60;45.50;;;;;;4990846;28;20295;-64
2023/07/20 07:58:21;;;;;;;10.80;3.07;;;15.50;45.50;;;;;;4987642;28;20277;-64
2023/07/20 08:00:48;;;;;;;15.03;5.23;;;15.30;46.80;;;;;;4981683;28;20571;-65
2023/07/20 08:03:15;;;;;;;10.87;4.83;;;15.30;47.60;;;;;;4982187;28;20220;-65
2023/07/20 08:05:43;;;;;;;7.40;3.37;;;15.20;48.40;;;;;;4983808;28;20592;-65
2023/07/20 08:08:10;;;;;;;10.37;3.33;;;15.10;48.60;;;;;;4982520;28;20178;-66
2023/07/20 08:10:37;;;;;;;7.60;2.93;;;15.10;49.20;;;;;;4987259;28;20291;-65
2023/07/20 08:13:05;;;;;;;9.13;2.43;;;15.00;49.30;;;;;;4986223;28;20212;-66
2023/07/20 08:15:32;;;;;;;7.43;2.47;;;15.00;50.00;;;;;;4987266;28;20205;-66
2023/07/20 08:17:59;;;;;;;11.13;2.30;;;14.90;50.70;;;;;;4991016;28;20194;-65
2023/07/20 08:20:27;;;;;;;6.50;2.20;;;14.90;50.80;;;;;;4982213;28;20187;-65
2023/07/20 08:22:56;;;;;;;7.17;2.83;;;14.80;51.60;;;;;;4990741;28;20210;-65
2023/07/20 08:25:23;;;;;;;6.33;3.37;;;14.80;51.50;;;;;;4981463;28;20200;-65
2023/07/20 08:27:50;;;;;;;10.47;3.60;;;14.60;52.20;;;;;;4987005;28;20182;-65
2023/07/20 08:30:18;;;;;;;5.60;2.83;;;14.60;52.90;;;;;;4985103;28;20232;-65
2023/07/20 08:32:45;;;;;;;10.83;3.77;;;14.40;53.10;;;;;;4984486;28;20393;-66
2023/07/20 08:35:12;;;;;;;11.40;3.63;;;14.30;53.60;;;;;;4984516;28;20189;-66
2023/07/20 08:37:40;;;;;;;6.50;3.00;;;14.30;53.60;;;;;;4986083;28;20188;-65
2023/07/20 08:40:08;;;;;;;9.23;3.13;;;14.20;53.60;;;;;;4978531;28;20289;-66
2023/07/20 08:42:37;;;;;;;12.93;2.70;;;14.10;54.20;;;;;;4985229;28;20320;-66
2023/07/20 08:45:13;;;;;;;8.23;2.73;;;14.00;54.70;;;;;;4981622;28;20185;-66
2023/07/20 08:47:44;;;;;;;9.43;2.70;;;13.90;55.30;;;;;;4985208;28;20585;-65
2023/07/20 08:50:13;;;;;;;10.13;5.03;;;13.90;55.80;;;;;;4983165;28;20182;-67
2023/07/20 08:52:40;;;;;;;11.57;4.87;;;13.80;55.80;;;;;;4984098;28;20190;-69
2023/07/20 08:55:08;;;;;;;12.43;5.30;;;13.80;56.30;;;;;;4981577;28;20181;-66
2023/07/20 08:57:36;;;;;;;13.00;4.73;;;13.70;56.30;;;;;;4985153;28;20218;-67
2023/07/20 09:00:11;;;;;;;9.47;3.43;;;13.70;56.80;;;;;;4982191;28;20199;-68
2023/07/20 09:02:41;;;;;;;8.63;3.07;;;13.60;57.30;;;;;;4971190;28;20710;-66
2023/07/20 09:05:09;;;;;;;11.70;3.50;;;13.60;57.10;;;;;;4982682;28;20213;-65
2023/07/20 09:07:41;;;;;;;10.33;3.43;;;13.60;57.70;;;;;;4981707;28;20573;-65
2023/07/20 09:10:09;;;;;;;11.93;3.70;;;13.50;57.80;;;;;;4989816;28;20273;-67
2023/07/20 09:12:40;;;;;;;7.33;3.70;;;13.40;58.00;;;;;;4986417;28;20201;-66
2023/07/20 09:15:09;;;;;;;6.90;3.30;;;13.40;58.70;;;;;;4982556;28;20196;-65
2023/07/20 09:17:37;;;;;;;9.23;3.60;;;13.30;58.60;;;;;;4984152;28;20648;-67
2023/07/20 09:20:07;;;;;;;7.80;3.60;;;13.20;58.80;;;;;;4984090;28;20194;-67
2023/07/20 09:22:35;;;;;;;15.23;4.10;;;13.20;59.40;;;;;;4986869;28;20309;-66
2023/07/20 09:25:06;;;;;;;9.20;3.93;;;13.20;60.10;;;;;;4982672;28;20185;-72
2023/07/20 09:27:40;;;;;;;9.77;3.60;;;13.20;60.20;;;;;;4984575;28;20182;-72
2023/07/20 09:30:09;;;;;;;10.03;3.60;;;13.20;60.20;;;;;;4981313;28;20196;-66
2023/07/20 09:32:44;;;;;;;10.47;3.73;;;13.20;58.50;;;;;;4981706;28;20199;-66
2023/07/20 09:35:21;;;;;;;7.37;3.23;;;13.20;59.60;;;;;;4983208;28;20625;-67
2023/07/20 09:38:01;;;;;;;13.43;3.70;;;13.20;58.80;;;;;;4982609;28;20273;-68
2023/07/20 09:40:29;;;;;;;10.33;3.30;;;13.20;56.40;;;;;;4982255;28;20181;-68
2023/07/20 09:43:00;;;;;;;10.57;3.23;;;13.30;56.30;;;;;;4987271;28;20193;-68
2023/07/20 09:45:43;;;;;;;8.57;3.17;;;13.30;57.00;;;;;;4979030;28;20549;-67
2023/07/20 09:48:12;;;;;;;8.57;2.93;;;13.30;55.20;;;;;;4986827;28;20197;-66
2023/07/20 09:50:49;;;;;;;12.17;3.30;;;13.30;55.30;;;;;;4980539;28;20197;-67
2023/07/20 09:53:18;;;;;;;7.53;3.10;;;13.20;55.60;;;;;;4987177;28;20613;-66
2023/07/20 09:55:47;;;;;;;11.10;3.90;;;13.30;55.60;;;;;;4984142;28;20217;-66
2023/07/20 09:58:15;;;;;;;9.93;4.03;;;13.30;56.20;;;;;;4983329;28;20241;-67
2023/07/20 10:00:46;;;;;;;7.90;4.17;;;13.20;56.50;;;;;;4984993;28;20252;-68
2023/07/20 10:03:18;;;;;;;11.13;4.40;;;13.10;57.60;;;;;;4985829;28;20667;-66
2023/07/20 10:05:56;;;;;;;11.73;4.87;;;13.10;58.00;;;;;;4984661;28;20190;-70
2023/07/20 10:08:29;;;;;;;12.53;4.90;;;13.00;57.60;;;;;;4982571;28;20210;-68
2023/07/20 10:11:03;;;;;;;16.10;5.77;;;13.00;58.10;;;;;;4987860;28;20261;-69
2023/07/20 10:13:32;;;;;;;10.93;5.10;;;12.90;58.60;;;;;;4985063;28;20328;-68
2023/07/20 10:16:10;;;;;;;15.10;6.70;;;12.80;56.60;;;;;;4989108;28;20684;-71
2023/07/20 10:18:50;;;;;;;15.57;7.53;;;12.80;57.40;;;;;;4981593;28;20186;-68
2023/07/20 10:21:20;;;;;;;9.67;4.23;;;12.70;57.50;;;;;;4987804;28;20661;-70
2023/07/20 10:23:48;;;;;;;13.03;6.07;;;12.70;56.50;;;;;;4987006;28;20211;-67
2023/07/20 10:26:15;;;;;;;6.87;4.27;;;12.70;57.10;;;;;;4988992;28;20209;-69
2023/07/20 10:28:43;;;;;;;9.70;5.27;;;12.50;57.90;;;;;;4987673;28;20216;-67
2023/07/20 10:31:13;;;;;;;17.07;7.13;;;12.50;59.00;;;;;;4990220;28;20700;-71
2023/07/20 10:33:40;;;;;;;21.93;6.37;;;12.40;60.10;;;;;;4987646;28;20197;-67
2023/07/20 10:36:08;;;;;;;10.17;4.80;;;12.30;60.90;;;;;;4986440;28;20209;-70
2023/07/20 10:38:55;;;;;;;8.67;5.00;;;12.30;61.30;;;;;;4982437;28;20536;-67
2023/07/20 10:41:29;;;;;;;9.60;4.23;;;12.30;62.20;;;;;;4987303;28;20656;-67
2023/07/20 10:44:20;;;;;;;7.50;4.63;;;12.20;60.30;;;;;;4987701;28;20240;-69
2023/07/20 10:46:47;;;;;;;11.03;5.33;;;12.20;61.60;;;;;;4980832;28;20186;-73
2023/07/20 10:49:16;;;;;;;12.83;4.60;;;12.10;61.90;;;;;;4985139;28;20205;-67
2023/07/20 10:51:48;;;;;;;13.00;5.63;;;12.00;61.60;;;;;;4985479;28;20178;-70
2023/07/20 10:54:18;;;;;;;7.87;4.73;;;12.00;60.20;;;;;;4987521;28;20652;-68
2023/07/20 10:56:48;;;;;;;8.63;4.07;;;12.00;59.60;;;;;;4985081;28;20209;-68
2023/07/20 10:59:40;;;;;;;7.70;4.80;;;11.90;60.00;;;;;;4982178;28;20260;-67
2023/07/20 11:02:09;;;;;;;9.40;4.93;;;11.90;60.70;;;;;;4989539;28;20182;-68
2023/07/20 11:04:40;;;;;;;7.63;4.67;;;11.80;60.70;;;;;;4991338;28;20213;-68
2023/07/20 11:07:08;;;;;;;11.07;5.10;;;11.70;60.70;;;;;;4987762;28;20189;-67
2023/07/20 11:09:41;;;;;;;13.57;5.57;;;11.60;60.80;;;;;;4992420;28;20185;-67
2023/07/20 11:12:18;;;;;;;9.43;5.40;;;11.60;61.10;;;;;;4989924;28;20193;-66
2023/07/20 11:14:59;;;;;;;10.20;5.93;;;11.50;61.10;;;;;;4986374;28;20296;-67
2023/07/20 11:17:34;;;;;;;11.20;5.70;;;11.50;61.60;;;;;;4984515;28;20213;-67
2023/07/20 11:20:03;;;;;;;10.40;6.07;;;11.40;62.20;;;;;;4980060;28;20189;-66
2023/07/20 11:22:32;;;;;;;10.53;5.97;;;11.40;61.90;;;;;;4984960;28;20687;-69
2023/07/20 11:25:00;;;;;;;14.07;5.90;;;11.40;62.00;;;;;;4980306;28;20190;-67
2023/07/20 11:27:28;;;;;;;11.00;5.20;;;11.40;63.20;;;;;;4983672;28;20197;-68
2023/07/20 11:29:55;;;;;;;7.30;4.90;;;11.30;62.60;;;;;;4987196;28;20247;-67
2023/07/20 11:32:24;;;;;;;8.70;5.37;;;11.30;62.70;;;;;;4966705;28;20196;-68
2023/07/20 11:34:52;;;;;;;10.00;5.37;;;11.30;62.90;;;;;;4982535;28;20212;-71
2023/07/20 11:37:19;;;;;;;14.50;5.90;;;11.30;62.80;;;;;;4980761;28;20248;-67
2023/07/20 11:39:47;;;;;;;11.77;5.33;;;11.20;62.90;;;;;;4983830;28;20179;-71
2023/07/20 11:42:15;;;;;;;10.23;5.97;;;11.20;62.50;;;;;;4985313;28;20186;-68
2023/07/20 11:44:42;;;;;;;9.90;5.77;;;11.20;63.10;;;;;;4983194;28;20551;-68
2023/07/20 11:47:11;;;;;;;15.93;6.77;;;11.20;63.10;;;;;;4981752;28;20208;-69
2023/07/20 11:49:49;;;;;;;21.53;7.20;;;11.20;63.20;;;;;;4986599;28;20191;-70
2023/07/20 11:52:17;;;;;;;10.87;5.70;;;11.20;62.20;;;;;;4983165;28;20186;-69
2023/07/20 11:54:45;;;;;;;10.33;5.70;;;11.20;62.70;;;;;;4983539;28;20248;-68
2023/07/20 11:57:19;;;;;;;11.77;5.70;;;11.10;61.60;;;;;;4986605;28;20221;-67
2023/07/20 12:00:08;;;;;;;9.70;5.30;;;11.10;63.10;;;;;;4986083;28;20182;-67
2023/07/20 12:02:36;;;;;;;10.73;5.13;;;11.10;61.90;;;;;;4978948;28;20268;-67
2023/07/20 12:05:04;;;;;;;11.37;5.23;;;11.00;62.80;;;;;;4987360;28;20312;-67
2023/07/20 12:07:36;;;;;;;11.73;4.50;;;11.00;63.40;;;;;;4983481;28;20674;-68
2023/07/20 12:10:11;;;;;;;12.23;5.20;;;10.90;63.60;;;;;;4976763;28;20181;-72
2023/07/20 12:12:43;;;;;;;12.53;5.23;;;10.90;62.90;;;;;;4987358;28;20287;-67
2023/07/20 12:15:26;;;;;;;9.03;5.07;;;10.90;63.60;;;;;;4984254;28;20208;-66
2023/07/20 12:17:56;;;;;;;9.63;5.20;;;10.90;64.30;;;;;;4984893;28;20288;-66
2023/07/20 12:20:30;;;;;;;7.63;4.77;;;10.90;64.30;;;;;;4964292;28;20190;-67
2023/07/20 12:23:09;;;;;;;15.13;5.67;;;10.80;64.00;;;;;;4985969;28;20185;-70
2023/07/20 12:25:43;;;;;;;17.60;5.70;;;10.80;63.40;;;;;;4976939;28;20221;-68
2023/07/20 12:28:12;;;;;;;9.53;5.60;;;10.80;62.90;;;;;;4966386;28;20189;-66
2023/07/20 12:30:40;;;;;;;10.97;5.50;;;10.90;64.00;;;;;;4979952;28;20236;-66
2023/07/20 12:33:08;;;;;;;11.53;5.80;;;10.80;64.10;;;;;;4980879;28;20187;-66
2023/07/20 12:35:36;;;;;;;11.83;5.87;;;10.70;62.60;;;;;;4978080;28;20197;-66
2023/07/20 12:38:03;;;;;;;12.10;5.53;;;10.70;62.00;;;;;;4989754;28;20267;-67
2023/07/20 12:40:32;;;;;;;9.53;4.87;;;10.70;60.20;;;;;;4963666;28;20194;-65
2023/07/20 12:42:59;;;;;;;10.43;5.70;;;10.80;60.70;;;;;;4981612;28;20186;-66
2023/07/20 12:45:27;;;;;;;13.33;6.60;;;10.80;59.80;;;;;;4977296;28;20185;-66
2023/07/20 12:47:54;;;;;;;10.60;5.30;;;10.80;60.10;;;;;;4984362;28;20181;-68
2023/07/20 12:50:22;;;;;;;10.93;5.47;;;10.80;60.00;;;;;;4986927;28;20252;-66
2023/07/20 12:52:49;;;;;;;9.33;5.27;;;10.90;60.40;;;;;;4983368;28;20189;-67